SBFN

Details ICAO SBFN (FEN)
Name Fernando De Noronha
Region Brazil
Timezone America/Noronha (UTC-2.0)
Plans Departing 126
Arriving 144
Stats Elevation 180 ft / 55 m (AMSL)
Location -3.854928° -32.423335°
Runways 1
Magnetic Variation 20.015° W
Sunrise 2018-06-18 08:15:09 UTC / 2018-06-18 06:15:09 Local
Sunset 2018-06-18 20:09:04 UTC / 2018-06-18 18:09:04 Local
Advertisement - Login to hide

Runways

ID Width Length Bearing (true) Bearing (mag) Surface Threshold Offset Overrun Length
12 148 ft / 45 m 6,070 ft / 1,850 m 93.99° 114.00° Asphalt 0 ft / 0 m 0 ft / 0 m
30 148 ft / 45 m 6,070 ft / 1,850 m 273.98° 293.99° Asphalt 0 ft / 0 m 0 ft / 0 m

Map

Weather


0- 5 10 15 20 25 30 35+ Temperature / ° C

Clouds and Precipitation
Forecast for 2018-06-19 00:00 UTC. Updated 2 hours ago

Ground ~20,000 ft ~40,000 ft Winds

METAR

SBFN 182200Z 12010KT 9999 SCT019 26/23 Q1017

TAF

TAF SBFN 181600Z 1818/1906 12010KT 8000 SCT016 TX28/1818Z TN25/1922Z RMK PEI

Frequencies

Tower 125.90 MHz NORONHA RDO
Warning: Do not use this data for real-world aviation or navigation. No guarantee of current accuracy is given.